Time;durP1;ratioP1;P1;durP2;ratioP2;P2;SDS_P1;SDS_P2;PMS_P1;PMS_P2;Temp;Humidity;BMP_temperature;BMP_pressure;BME280_temperature;BME280_humidity;BME280_pressure;Samples;Min_cycle;Max_cycle;Signal;HPM_P1;HPM_P2
2022/02/18 00:00:06;;;;;;;11.40;2.05;;;5.70;99.70;;;;;;5038709;28;20130;-76
2022/02/18 00:02:31;;;;;;;;;;;5.80;99.70;;;;;;5037476;28;20029;-76
2022/02/18 00:04:57;;;;;;;5.28;0.95;;;5.80;99.80;;;;;;5037576;28;20411;-74
2022/02/18 00:07:22;;;;;;;13.25;1.33;;;5.80;99.60;;;;;;5039126;28;20036;-76
2022/02/18 00:09:49;;;;;;;6.15;1.15;;;5.80;99.60;;;;;;5035762;28;20029;-76
2022/02/18 00:12:15;;;;;;;5.35;1.48;;;5.90;99.50;;;;;;5039316;28;20021;-76
2022/02/18 00:14:40;;;;;;;9.55;1.42;;;5.90;99.50;;;;;;5033318;28;20513;-76
2022/02/18 00:17:06;;;;;;;5.55;0.98;;;5.90;99.40;;;;;;5039158;28;20591;-77
2022/02/18 00:19:32;;;;;;;10.50;1.00;;;5.90;99.40;;;;;;5037775;28;20036;-76
2022/02/18 00:21:58;;;;;;;;;;;6.00;99.40;;;;;;5037600;28;20443;-76
2022/02/18 00:24:23;;;;;;;9.13;1.33;;;6.00;99.40;;;;;;5038935;28;20038;-76
2022/02/18 00:26:48;;;;;;;3.67;0.80;;;6.00;99.30;;;;;;5034698;28;20105;-76
2022/02/18 00:29:14;;;;;;;2.95;1.15;;;6.10;99.40;;;;;;5039702;28;20107;-76
2022/02/18 00:31:40;;;;;;;4.70;1.52;;;6.10;99.40;;;;;;5033154;28;20390;-77
2022/02/18 00:34:05;;;;;;;6.40;2.47;;;6.20;99.40;;;;;;5038770;28;20034;-76
2022/02/18 00:36:31;;;;;;;6.43;1.65;;;6.20;99.50;;;;;;5037788;28;20099;-77
2022/02/18 00:38:56;;;;;;;4.00;1.63;;;6.20;99.40;;;;;;5039237;28;20460;-76
2022/02/18 00:41:22;;;;;;;4.57;1.05;;;6.20;99.40;;;;;;5038671;28;20108;-76
2022/02/18 00:43:48;;;;;;;12.45;2.75;;;6.20;99.40;;;;;;5037119;28;20037;-77
2022/02/18 00:46:17;;;;;;;6.18;1.95;;;6.30;99.50;;;;;;5037689;28;20440;-77
2022/02/18 00:48:42;;;;;;;8.48;1.65;;;6.30;99.40;;;;;;5037858;28;20038;-77
2022/02/18 00:51:08;;;;;;;14.73;1.33;;;6.30;99.40;;;;;;5038347;28;20352;-77
2022/02/18 00:53:34;;;;;;;9.60;1.10;;;6.30;99.60;;;;;;5038324;28;20033;-77
2022/02/18 00:55:59;;;;;;;;;;;6.20;99.60;;;;;;5038112;28;20033;-77
2022/02/18 00:58:25;;;;;;;4.28;0.93;;;6.20;99.60;;;;;;5034960;28;20258;-76
2022/02/18 01:00:51;;;;;;;6.38;1.55;;;6.20;99.80;;;;;;5035894;28;20083;-77
2022/02/18 01:03:17;;;;;;;;;;;6.20;99.80;;;;;;5036056;28;20071;-77
2022/02/18 01:05:43;;;;;;;14.30;1.73;;;6.20;99.80;;;;;;5037165;28;19908;-76
2022/02/18 01:08:08;;;;;;;5.20;1.60;;;6.20;99.90;;;;;;5036440;28;20033;-76
2022/02/18 01:10:34;;;;;;;7.78;2.50;;;6.20;99.90;;;;;;5037688;28;20040;-77
2022/02/18 01:13:00;;;;;;;6.68;1.30;;;6.20;99.90;;;;;;5033800;28;20091;-77
2022/02/18 01:15:26;;;;;;;8.20;1.48;;;6.20;99.90;;;;;;5036985;28;20040;-77
2022/02/18 01:17:51;;;;;;;5.43;1.40;;;6.10;99.90;;;;;;5035550;28;20063;-76
2022/02/18 01:20:17;;;;;;;6.32;1.38;;;6.20;99.90;;;;;;5039841;28;20079;-76
2022/02/18 01:22:43;;;;;;;9.27;1.88;;;6.10;99.90;;;;;;5037205;28;20037;-76
2022/02/18 01:25:09;;;;;;;8.90;1.92;;;6.10;99.90;;;;;;5039193;28;20033;-77
2022/02/18 01:27:35;;;;;;;;;;;6.10;99.90;;;;;;5038359;28;20486;-77
2022/02/18 01:30:01;;;;;;;7.28;1.65;;;6.10;99.90;;;;;;5037768;28;19919;-76
2022/02/18 01:32:26;;;;;;;;;;;6.10;99.90;;;;;;5033785;28;20026;-77
2022/02/18 01:34:52;;;;;;;9.00;1.73;;;6.10;99.90;;;;;;5036247;28;19909;-76
2022/02/18 01:37:17;;;;;;;8.63;1.90;;;6.10;99.90;;;;;;5037705;28;20539;-76
2022/02/18 01:39:43;;;;;;;8.05;1.80;;;6.10;99.90;;;;;;5038683;28;20037;-77
2022/02/18 01:42:08;;;;;;;9.95;1.67;;;6.10;99.90;;;;;;5035315;28;20402;-76
2022/02/18 01:44:46;;;;;;;4.43;1.55;;;6.10;99.90;;;;;;5038114;28;20486;-76
2022/02/18 01:47:15;;;;;;;10.45;1.73;;;6.10;99.90;;;;;;5037968;28;20036;-76
2022/02/18 01:49:42;;;;;;;5.65;1.35;;;6.10;99.90;;;;;;5035201;28;20036;-76
2022/02/18 01:52:08;;;;;;;6.30;1.98;;;6.10;99.90;;;;;;5036556;28;20059;-76
2022/02/18 01:54:34;;;;;;;6.43;2.50;;;6.10;99.90;;;;;;5036968;28;20652;-77
2022/02/18 01:57:00;;;;;;;3.47;1.38;;;6.10;99.90;;;;;;5035624;28;20040;-76
2022/02/18 01:59:29;;;;;;;9.60;1.65;;;6.00;99.90;;;;;;5037948;28;20424;-76
2022/02/18 02:01:58;;;;;;;6.07;1.90;;;6.00;99.90;;;;;;5035131;28;20485;-76
2022/02/18 02:04:24;;;;;;;5.07;1.38;;;6.00;99.90;;;;;;5038267;28;20021;-76
2022/02/18 02:06:50;;;;;;;3.22;1.85;;;5.90;99.90;;;;;;5035202;28;20397;-76
2022/02/18 02:09:16;;;;;;;5.90;1.58;;;5.90;99.90;;;;;;5036786;28;20018;-76
2022/02/18 02:11:41;;;;;;;7.15;1.40;;;5.90;99.90;;;;;;5037449;28;20076;-76
2022/02/18 02:14:08;;;;;;;8.48;1.58;;;5.90;99.90;;;;;;5038124;28;20136;-77
2022/02/18 02:16:34;;;;;;;5.78;1.20;;;5.90;99.90;;;;;;5035163;28;20029;-76
2022/02/18 02:18:59;;;;;;;5.65;1.20;;;5.90;99.90;;;;;;5035526;28;20063;-76
2022/02/18 02:21:26;;;;;;;10.43;1.75;;;5.90;99.90;;;;;;5037540;28;20032;-76
2022/02/18 02:23:53;;;;;;;7.50;3.03;;;5.90;99.90;;;;;;5032908;28;20029;-76
2022/02/18 02:26:19;;;;;;;10.68;2.03;;;5.90;99.90;;;;;;5036390;28;20052;-76
2022/02/18 02:28:44;;;;;;;7.00;1.50;;;5.90;99.90;;;;;;5036442;28;20068;-76
2022/02/18 02:31:10;;;;;;;6.55;1.88;;;5.90;99.90;;;;;;5037997;28;20082;-76
2022/02/18 02:33:35;;;;;;;7.18;1.85;;;5.90;99.90;;;;;;5038655;28;20084;-77
2022/02/18 02:36:01;;;;;;;8.30;1.77;;;5.90;99.90;;;;;;5035494;28;20046;-76
2022/02/18 02:38:26;;;;;;;7.35;2.38;;;5.90;99.90;;;;;;5032784;28;20033;-76
2022/02/18 02:40:52;;;;;;;11.82;3.78;;;5.90;99.90;;;;;;5037126;28;20570;-77
2022/02/18 02:43:17;;;;;;;3.30;1.20;;;5.90;99.90;;;;;;5035646;28;20513;-76
2022/02/18 02:45:43;;;;;;;12.23;1.85;;;5.90;99.90;;;;;;5035976;28;20033;-76
2022/02/18 02:48:09;;;;;;;9.05;1.40;;;5.90;99.90;;;;;;5037504;28;20021;-76
2022/02/18 02:50:34;;;;;;;4.95;1.75;;;5.90;99.90;;;;;;5035636;28;20034;-76
2022/02/18 02:53:00;;;;;;;7.07;1.60;;;5.90;99.90;;;;;;5035285;28;20204;-76
2022/02/18 02:55:26;;;;;;;5.53;1.73;;;5.90;99.90;;;;;;5034874;28;20030;-76
2022/02/18 02:57:51;;;;;;;8.93;3.42;;;5.90;99.90;;;;;;5035614;28;20026;-76
2022/02/18 03:00:17;;;;;;;10.18;2.47;;;5.90;99.90;;;;;;5037198;28;20452;-76
2022/02/18 03:02:43;;;;;;;;;;;5.90;99.90;;;;;;5036398;28;20170;-76
2022/02/18 03:05:10;;;;;;;4.90;1.42;;;5.90;99.90;;;;;;5040002;28;20322;-77
2022/02/18 03:07:36;;;;;;;6.20;2.22;;;5.90;99.90;;;;;;5038894;28;20167;-76
2022/02/18 03:10:04;;;;;;;4.68;2.05;;;5.90;99.90;;;;;;5036766;28;20120;-75
2022/02/18 03:12:29;;;;;;;10.95;3.17;;;5.80;99.90;;;;;;5038633;28;20553;-76
2022/02/18 03:14:55;;;;;;;11.23;2.75;;;5.80;99.90;;;;;;5039409;28;20024;-76
2022/02/18 03:17:20;;;;;;;8.15;2.65;;;5.70;99.90;;;;;;5036000;28;20112;-75
2022/02/18 03:19:46;;;;;;;6.07;3.03;;;5.70;99.90;;;;;;5040560;28;20029;-76
2022/02/18 03:22:11;;;;;;;12.25;2.90;;;5.70;99.90;;;;;;5039999;28;20137;-76
2022/02/18 03:24:37;;;;;;;;;;;5.60;99.90;;;;;;5041077;28;20129;-76
2022/02/18 03:27:03;;;;;;;13.25;2.63;;;5.60;99.90;;;;;;5040372;28;19935;-75
2022/02/18 03:29:28;;;;;;;;;;;5.60;99.90;;;;;;5039240;28;20052;-75
2022/02/18 03:31:54;;;;;;;8.20;2.88;;;5.50;99.90;;;;;;5038310;28;20892;-76
2022/02/18 03:34:21;;;;;;;7.85;2.10;;;5.50;99.90;;;;;;5039457;28;20036;-75
2022/02/18 03:36:46;;;;;;;8.20;3.03;;;5.50;99.90;;;;;;5037516;28;20061;-75
2022/02/18 03:39:12;;;;;;;3.67;2.08;;;5.40;99.90;;;;;;5039603;28;20061;-75
2022/02/18 03:41:37;;;;;;;9.20;2.15;;;5.40;99.90;;;;;;5040737;28;20036;-75
2022/02/18 03:44:06;;;;;;;7.45;2.33;;;5.40;99.90;;;;;;5039290;28;20431;-75
2022/02/18 03:46:33;;;;;;;9.43;2.83;;;5.40;99.90;;;;;;5038283;28;20032;-75
2022/02/18 03:48:58;;;;;;;7.97;2.85;;;5.30;99.90;;;;;;5039251;28;20032;-76
2022/02/18 03:51:24;;;;;;;9.15;3.17;;;5.30;99.90;;;;;;5036559;28;20029;-76
2022/02/18 03:53:50;;;;;;;19.00;3.53;;;5.20;99.90;;;;;;5038165;28;20096;-76
2022/02/18 03:56:16;;;;;;;11.95;2.67;;;5.20;99.90;;;;;;5040671;28;20095;-76
2022/02/18 03:58:41;;;;;;;;;;;5.20;99.90;;;;;;5039941;28;20036;-76
2022/02/18 04:01:07;;;;;;;6.90;2.40;;;5.10;99.90;;;;;;5036385;28;19908;-75
2022/02/18 04:03:32;;;;;;;8.18;2.97;;;5.10;99.90;;;;;;5035454;28;20036;-76
2022/02/18 04:05:58;;;;;;;15.73;4.07;;;5.10;99.90;;;;;;5038743;28;20547;-76
2022/02/18 04:08:24;;;;;;;8.07;3.05;;;5.10;99.90;;;;;;5039750;28;20398;-75
2022/02/18 04:10:49;;;;;;;6.50;2.38;;;5.10;99.90;;;;;;5035559;28;20029;-75
2022/02/18 04:13:15;;;;;;;9.60;2.47;;;5.10;99.90;;;;;;5037945;28;20021;-75
2022/02/18 04:15:40;;;;;;;11.88;3.22;;;5.10;99.90;;;;;;5035973;28;20039;-76
2022/02/18 04:18:06;;;;;;;5.88;2.80;;;5.20;99.90;;;;;;5038246;28;20438;-75
2022/02/18 04:20:31;;;;;;;9.60;4.28;;;5.20;99.90;;;;;;5039174;28;20086;-76
2022/02/18 04:22:57;;;;;;;7.88;2.50;;;5.20;99.90;;;;;;5036642;28;20039;-76
2022/02/18 04:25:22;;;;;;;12.70;3.72;;;5.10;99.90;;;;;;5038810;28;20494;-75
2022/02/18 04:27:52;;;;;;;;;;;5.10;99.90;;;;;;5039849;28;20033;-75
2022/02/18 04:30:17;;;;;;;10.68;3.28;;;5.10;99.90;;;;;;5039105;28;19927;-74
2022/02/18 04:32:43;;;;;;;10.60;4.07;;;5.10;99.90;;;;;;5034301;28;20029;-74
2022/02/18 04:35:11;;;;;;;9.25;3.35;;;5.10;99.90;;;;;;5040112;28;20556;-76
2022/02/18 04:37:37;;;;;;;10.00;3.10;;;5.10;99.90;;;;;;5039807;28;20112;-74
2022/02/18 04:40:03;;;;;;;10.30;3.25;;;5.10;99.90;;;;;;5038093;28;20120;-74
2022/02/18 04:42:28;;;;;;;9.68;4.18;;;5.10;99.90;;;;;;5038666;28;20067;-76
2022/02/18 04:44:53;;;;;;;13.65;2.83;;;5.10;99.90;;;;;;5039646;28;20074;-77
2022/02/18 04:47:19;;;;;;;10.57;2.80;;;5.10;99.90;;;;;;5035070;28;20041;-76
2022/02/18 04:49:45;;;;;;;8.18;3.30;;;5.10;99.90;;;;;;5036347;28;20048;-76
2022/02/18 04:52:11;;;;;;;9.45;2.90;;;5.10;99.90;;;;;;5038555;28;20094;-76
2022/02/18 04:54:37;;;;;;;;;;;5.10;99.90;;;;;;5039371;28;20030;-76
2022/02/18 04:57:03;;;;;;;13.05;3.03;;;5.20;99.90;;;;;;5038438;28;19935;-76
2022/02/18 04:59:28;;;;;;;10.13;3.83;;;5.20;99.90;;;;;;5038573;28;20029;-76
2022/02/18 05:01:54;;;;;;;10.13;3.28;;;5.20;99.90;;;;;;5030267;28;20587;-76
2022/02/18 05:04:19;;;;;;;24.20;5.28;;;5.20;99.90;;;;;;5036504;28;20064;-76
2022/02/18 05:06:45;;;;;;;15.52;4.53;;;5.10;99.90;;;;;;5038724;28;20108;-76
2022/02/18 05:09:12;;;;;;;10.57;4.35;;;5.20;99.90;;;;;;5035360;28;20017;-76
2022/02/18 05:11:38;;;;;;;12.23;4.50;;;5.20;99.90;;;;;;5036642;28;20387;-76
2022/02/18 05:14:03;;;;;;;13.70;4.05;;;5.20;99.90;;;;;;5035286;22;20059;-73
2022/02/18 05:16:29;;;;;;;9.52;3.58;;;5.20;99.90;;;;;;5018745;28;20097;-72
2022/02/18 05:18:55;;;;;;;12.70;3.38;;;5.30;99.90;;;;;;5017316;28;20482;-72
2022/02/18 05:21:22;;;;;;;14.93;4.20;;;5.30;99.90;;;;;;5014972;28;20053;-73
2022/02/18 05:23:48;;;;;;;14.13;4.22;;;5.30;99.90;;;;;;5016834;28;20494;-73
2022/02/18 05:26:13;;;;;;;14.68;3.75;;;5.40;99.90;;;;;;5015726;28;20079;-72
2022/02/18 05:28:39;;;;;;;9.20;4.13;;;5.40;99.90;;;;;;5017567;28;20033;-72
2022/02/18 05:31:04;;;;;;;25.17;5.65;;;5.40;99.90;;;;;;5017314;28;20068;-72
2022/02/18 05:33:30;;;;;;;12.75;4.95;;;5.40;99.90;;;;;;5017582;28;20380;-73
2022/02/18 05:35:55;;;;;;;9.77;4.97;;;5.50;99.90;;;;;;5019480;28;20045;-74
2022/02/18 05:38:21;;;;;;;13.00;4.78;;;5.50;99.90;;;;;;5017318;28;20743;-72
2022/02/18 05:40:46;;;;;;;;;;;5.50;99.90;;;;;;5015285;28;20049;-74
2022/02/18 05:43:12;;;;;;;13.70;4.80;;;5.50;99.90;;;;;;5016923;28;19917;-72
2022/02/18 05:45:37;;;;;;;16.80;5.75;;;5.60;99.90;;;;;;5016587;28;20032;-73
2022/02/18 05:48:03;;;;;;;18.42;5.43;;;5.60;99.90;;;;;;5014606;28;20487;-71
2022/02/18 05:50:28;;;;;;;12.20;5.88;;;5.60;99.90;;;;;;5014288;28;20042;-72
2022/02/18 05:52:54;;;;;;;15.75;5.68;;;5.60;99.90;;;;;;5012978;28;20048;-72
2022/02/18 05:55:20;;;;;;;13.23;4.85;;;5.60;99.90;;;;;;5013669;28;20117;-71
2022/02/18 05:57:45;;;;;;;11.82;4.82;;;5.60;99.90;;;;;;5014338;28;20116;-71
2022/02/18 06:00:11;;;;;;;9.43;4.07;;;5.60;99.90;;;;;;5013621;28;20395;-71
2022/02/18 06:02:38;;;;;;;14.35;4.25;;;5.60;99.90;;;;;;5017053;28;20626;-72
2022/02/18 06:05:04;;;;;;;10.55;4.85;;;5.60;99.90;;;;;;5017726;28;20095;-71
2022/02/18 06:07:30;;;;;;;;;;;5.60;99.90;;;;;;5017030;28;20034;-72
2022/02/18 06:09:56;;;;;;;14.00;4.78;;;5.70;99.90;;;;;;5017444;28;20373;-71
2022/02/18 06:12:21;;;;;;;14.88;5.13;;;5.60;99.90;;;;;;5013373;28;20057;-71
2022/02/18 06:14:50;;;;;;;11.68;4.03;;;5.70;99.90;;;;;;5015464;28;20034;-72
2022/02/18 06:17:17;;;;;;;13.95;4.93;;;5.70;99.90;;;;;;5017910;28;20498;-74
2022/02/18 06:19:42;;;;;;;16.75;5.72;;;5.70;99.90;;;;;;5015422;28;20057;-73
2022/02/18 06:22:08;;;;;;;15.10;5.57;;;5.70;99.90;;;;;;5010546;28;20465;-71
2022/02/18 06:24:33;;;;;;;17.30;5.88;;;5.70;99.90;;;;;;5016794;28;20617;-72
2022/02/18 06:26:59;;;;;;;17.17;5.68;;;5.70;99.90;;;;;;5018397;28;20285;-72
2022/02/18 06:29:24;;;;;;;;;;;5.70;99.90;;;;;;5015867;28;20061;-72
2022/02/18 06:31:50;;;;;;;11.20;5.35;;;5.70;99.90;;;;;;5015718;28;19964;-72
2022/02/18 06:34:16;;;;;;;13.10;5.72;;;5.80;99.90;;;;;;5016186;28;20410;-72
2022/02/18 06:36:41;;;;;;;15.57;5.65;;;5.80;99.90;;;;;;5012694;28;20036;-72
2022/02/18 06:39:07;;;;;;;13.70;6.13;;;5.80;99.90;;;;;;5016243;28;20108;-72
2022/02/18 06:41:33;;;;;;;15.73;6.00;;;5.80;99.90;;;;;;5020669;28;20045;-72
2022/02/18 06:43:58;;;;;;;12.45;6.07;;;5.80;99.90;;;;;;5020245;28;20502;-72
2022/02/18 06:46:24;;;;;;;16.98;7.57;;;5.90;99.90;;;;;;5021883;28;20022;-72
2022/02/18 06:48:49;;;;;;;11.45;7.00;;;5.90;99.90;;;;;;5022649;28;20512;-72
2022/02/18 06:51:15;;;;;;;22.70;7.18;;;5.90;99.90;;;;;;5021920;28;20034;-72
2022/02/18 06:53:40;;;;;;;;;;;5.90;99.90;;;;;;5020923;28;20049;-72
2022/02/18 06:56:06;;;;;;;20.58;7.30;;;5.90;99.90;;;;;;5022379;28;19910;-72
2022/02/18 06:58:32;;;;;;;13.65;5.97;;;6.00;99.90;;;;;;5021866;28;20136;-72
2022/02/18 07:00:57;;;;;;;14.38;6.38;;;6.00;99.90;;;;;;5022676;28;20034;-72
2022/02/18 07:03:23;;;;;;;23.25;6.50;;;6.00;99.90;;;;;;5022450;28;20313;-73
2022/02/18 07:05:49;;;;;;;11.20;6.30;;;6.10;99.90;;;;;;5022481;28;20196;-69
2022/02/18 07:08:15;;;;;;;14.15;6.05;;;6.10;99.90;;;;;;5018714;28;20026;-71
2022/02/18 07:10:41;;;;;;;;;;;6.20;99.90;;;;;;5016355;28;20526;-69
2022/02/18 07:13:07;;;;;;;15.68;6.35;;;6.30;99.90;;;;;;5018731;28;20012;-69
2022/02/18 07:15:33;;;;;;;15.55;7.10;;;6.30;99.90;;;;;;5019863;28;20543;-68
2022/02/18 07:18:00;;;;;;;20.45;6.47;;;6.40;99.90;;;;;;5020250;28;20030;-74
2022/02/18 07:20:26;;;;;;;18.17;8.13;;;6.40;99.90;;;;;;5020513;28;20048;-71
2022/02/18 07:22:52;;;;;;;16.60;6.65;;;6.40;99.90;;;;;;5018801;28;20038;-71
2022/02/18 07:25:20;;;;;;;13.93;6.85;;;6.50;99.90;;;;;;5019096;28;20037;-70
2022/02/18 07:27:46;;;;;;;13.45;5.85;;;6.60;99.90;;;;;;5020283;28;20477;-70
2022/02/18 07:30:11;;;;;;;;;;;6.60;99.90;;;;;;5019329;28;20025;-71
2022/02/18 07:32:37;;;;;;;21.63;5.85;;;6.70;99.90;;;;;;5016939;28;20319;-70
2022/02/18 07:35:03;;;;;;;13.23;5.45;;;6.70;99.90;;;;;;5017673;28;20540;-70
2022/02/18 07:37:29;;;;;;;10.52;4.60;;;6.70;99.90;;;;;;5016001;28;20072;-70
2022/02/18 07:39:55;;;;;;;10.35;4.43;;;6.80;99.90;;;;;;5017399;28;20034;-70
2022/02/18 07:42:20;;;;;;;;;;;6.80;99.90;;;;;;5015513;28;20121;-69
2022/02/18 07:44:46;;;;;;;14.63;4.80;;;6.90;99.90;;;;;;5019114;28;20035;-71
2022/02/18 07:47:11;;;;;;;;;;;6.90;99.90;;;;;;5018068;28;20233;-72
2022/02/18 07:49:40;;;;;;;11.48;3.88;;;6.90;99.90;;;;;;5016526;28;19909;-72
2022/02/18 07:52:07;;;;;;;8.82;4.05;;;7.00;99.90;;;;;;5014380;28;20025;-70
2022/02/18 07:54:33;;;;;;;16.90;4.50;;;7.00;99.90;;;;;;5019643;28;20083;-71
2022/02/18 07:56:58;;;;;;;15.98;4.75;;;7.00;99.90;;;;;;5018683;28;20025;-69
2022/02/18 07:59:24;;;;;;;16.42;7.63;;;7.10;99.90;;;;;;5016345;28;20033;-68
2022/02/18 08:01:49;;;;;;;14.90;4.60;;;7.10;99.90;;;;;;5018180;28;20475;-70
2022/02/18 08:04:15;;;;;;;12.98;5.80;;;7.10;99.90;;;;;;5019301;28;20025;-69
2022/02/18 08:06:41;;;;;;;11.45;3.67;;;7.10;99.90;;;;;;5020149;28;20034;-69
2022/02/18 08:09:06;;;;;;;15.95;5.30;;;7.20;99.90;;;;;;5020031;28;20565;-69
2022/02/18 08:11:31;;;;;;;15.23;5.25;;;7.20;99.90;;;;;;5017518;28;20049;-70
2022/02/18 08:13:59;;;;;;;18.58;5.25;;;7.20;99.90;;;;;;5019039;28;20117;-70
2022/02/18 08:16:26;;;;;;;15.50;4.57;;;7.20;99.90;;;;;;5016807;28;20402;-70
2022/02/18 08:18:53;;;;;;;11.15;3.65;;;7.10;99.90;;;;;;5017743;28;20037;-71
2022/02/18 08:21:18;;;;;;;18.77;4.65;;;7.10;99.90;;;;;;5018263;28;20577;-71
2022/02/18 08:23:44;;;;;;;11.07;5.55;;;7.20;99.90;;;;;;5019406;28;20041;-71
2022/02/18 08:26:09;;;;;;;11.60;3.58;;;7.20;99.90;;;;;;5017684;28;20033;-72
2022/02/18 08:28:35;;;;;;;12.98;3.25;;;7.20;99.90;;;;;;5016581;28;20037;-70
2022/02/18 08:31:00;;;;;;;10.27;3.55;;;7.20;99.90;;;;;;5016989;28;20446;-71
2022/02/18 08:33:26;;;;;;;13.32;2.75;;;7.30;99.90;;;;;;5016937;28;20494;-74
2022/02/18 08:35:51;;;;;;;10.65;3.63;;;7.30;99.90;;;;;;5018572;28;20084;-75
2022/02/18 08:38:17;;;;;;;5.95;2.25;;;7.30;99.90;;;;;;5018778;28;20025;-73
2022/02/18 08:40:43;;;;;;;6.60;2.28;;;7.30;99.90;;;;;;5018747;28;20038;-75
2022/02/18 08:43:08;;;;;;;12.05;2.50;;;7.40;99.90;;;;;;5018084;28;20474;-78
2022/02/18 08:45:34;;;;;;;7.03;2.42;;;7.40;99.90;;;;;;5017750;28;20062;-75
2022/02/18 08:48:00;;;;;;;11.57;3.30;;;7.30;99.90;;;;;;5014088;28;20390;-74
2022/02/18 08:50:27;;;;;;;11.23;3.25;;;7.30;99.90;;;;;;5016145;28;20158;-74
2022/02/18 08:52:52;;;;;;;9.77;3.28;;;7.30;99.90;;;;;;5018857;28;20514;-73
2022/02/18 08:55:20;;;;;;;7.43;1.92;;;7.40;99.90;;;;;;5018921;28;20037;-71
2022/02/18 08:57:47;;;;;;;7.93;3.22;;;7.40;99.90;;;;;;5019840;28;20080;-71
2022/02/18 09:00:13;;;;;;;;;;;7.40;99.90;;;;;;5018058;28;20030;-71
2022/02/18 09:02:41;;;;;;;6.15;2.80;;;7.50;99.90;;;;;;5019319;28;20334;-70
2022/02/18 09:05:07;;;;;;;9.18;1.95;;;7.50;99.90;;;;;;5017095;28;20402;-70
2022/02/18 09:07:33;;;;;;;14.20;3.28;;;7.60;99.90;;;;;;5016578;28;20029;-70
2022/02/18 09:09:59;;;;;;;13.98;3.15;;;7.60;99.90;;;;;;5018230;28;20098;-70
2022/02/18 09:12:25;;;;;;;9.63;3.00;;;7.60;99.90;;;;;;5016599;28;20030;-71
2022/02/18 09:14:51;;;;;;;8.85;2.13;;;7.60;99.90;;;;;;5019015;28;20052;-72
2022/02/18 09:17:17;;;;;;;6.10;1.75;;;7.60;99.90;;;;;;5019860;28;20060;-71
2022/02/18 09:19:43;;;;;;;11.50;2.88;;;7.70;99.90;;;;;;5019674;28;20513;-71
2022/02/18 09:22:09;;;;;;;10.30;3.15;;;7.60;99.90;;;;;;5018776;28;20137;-72
2022/02/18 09:24:34;;;;;;;7.03;2.25;;;7.60;99.90;;;;;;5015676;28;20037;-73
2022/02/18 09:27:00;;;;;;;8.05;1.83;;;7.60;99.90;;;;;;5016237;28;20542;-73
2022/02/18 09:29:29;;;;;;;7.50;1.73;;;7.70;99.90;;;;;;5018728;28;20040;-72
2022/02/18 09:31:55;;;;;;;7.10;1.85;;;7.70;99.90;;;;;;5015791;28;20033;-71
2022/02/18 09:34:21;;;;;;;;;;;7.70;99.90;;;;;;5018349;28;20087;-72
2022/02/18 09:36:46;;;;;;;3.95;2.05;;;7.70;99.90;;;;;;5017055;28;19909;-69
2022/02/18 09:39:12;;;;;;;;;;;7.80;99.90;;;;;;5018580;28;20018;-70
2022/02/18 09:41:41;;;;;;;15.50;2.08;;;7.80;99.90;;;;;;5016161;28;20266;-70
2022/02/18 09:44:07;;;;;;;7.50;2.58;;;7.80;99.90;;;;;;5017995;28;20030;-70
2022/02/18 09:46:33;;;;;;;5.50;1.92;;;7.80;99.90;;;;;;5018887;28;20112;-71
2022/02/18 09:49:00;;;;;;;10.07;2.72;;;7.70;99.90;;;;;;5017544;28;20056;-73
2022/02/18 09:51:27;;;;;;;8.73;2.17;;;7.70;99.90;;;;;;5015973;28;20021;-71
2022/02/18 09:53:53;;;;;;;10.45;2.03;;;7.70;99.90;;;;;;5018688;28;20037;-69
2022/02/18 09:56:19;;;;;;;6.88;2.53;;;7.70;99.90;;;;;;5014937;28;20152;-69
2022/02/18 09:58:45;;;;;;;13.27;2.90;;;7.70;99.90;;;;;;5018616;28;20529;-69
2022/02/18 10:01:14;;;;;;;11.15;2.33;;;7.70;99.90;;;;;;5000194;28;20037;-70
2022/02/18 10:03:40;;;;;;;5.90;1.83;;;7.70;99.90;;;;;;5017449;28;20060;-70
2022/02/18 10:06:06;;;;;;;10.95;2.35;;;7.80;99.90;;;;;;5016466;28;20116;-70
2022/02/18 10:08:31;;;;;;;7.88;2.17;;;7.80;99.90;;;;;;5017280;28;20121;-70
2022/02/18 10:11:05;;;;;;;8.07;2.38;;;7.80;99.90;;;;;;5014721;28;20394;-69
2022/02/18 10:13:41;;;;;;;9.82;1.63;;;7.90;99.90;;;;;;5015558;28;20029;-70
2022/02/18 10:16:18;;;;;;;3.78;1.63;;;7.90;99.90;;;;;;5017597;28;20033;-70
2022/02/18 10:18:53;;;;;;;9.48;2.00;;;7.90;99.90;;;;;;5016498;28;20118;-71
2022/02/18 10:21:27;;;;;;;11.85;2.13;;;7.90;99.90;;;;;;5015987;28;20026;-71
2022/02/18 10:24:15;;;;;;;13.85;3.53;;;7.80;99.90;;;;;;5018056;28;20029;-71
2022/02/18 10:26:49;;;;;;;13.95;2.47;;;7.90;99.90;;;;;;5017851;28;20029;-71
2022/02/18 10:29:20;;;;;;;4.68;2.03;;;7.90;99.90;;;;;;5017864;28;20540;-73
2022/02/18 10:32:10;;;;;;;10.38;2.15;;;7.90;99.90;;;;;;5013075;28;20911;-73
2022/02/18 10:34:55;;;;;;;12.30;2.10;;;7.90;99.90;;;;;;5016145;28;20404;-74
2022/02/18 10:37:23;;;;;;;10.35;2.85;;;7.90;99.90;;;;;;5017610;28;20022;-75
2022/02/18 10:39:49;;;;;;;10.15;1.80;;;7.90;99.90;;;;;;5017819;28;20026;-74
2022/02/18 10:42:16;;;;;;;8.40;1.75;;;7.90;99.90;;;;;;5015593;28;20037;-74
2022/02/18 10:44:42;;;;;;;10.23;2.10;;;7.90;99.90;;;;;;5016689;28;20480;-74
2022/02/18 10:47:18;;;;;;;;;;;7.80;99.90;;;;;;5016115;28;20153;-76
2022/02/18 10:49:45;;;;;;;8.05;1.98;;;7.80;99.90;;;;;;5014175;28;19913;-75
2022/02/18 10:52:12;;;;;;;6.20;1.58;;;7.70;99.90;;;;;;5014962;28;20029;-74
2022/02/18 10:54:38;;;;;;;7.20;1.70;;;7.80;99.90;;;;;;5017748;28;20363;-75
2022/02/18 10:57:12;;;;;;;;;;;7.70;99.90;;;;;;5019615;28;20037;-75
2022/02/18 10:59:38;;;;;;;9.52;1.98;;;7.70;99.90;;;;;;5017539;28;19917;-73
2022/02/18 11:02:03;;;;;;;;;;;7.70;99.90;;;;;;5017262;28;20029;-73
2022/02/18 11:04:29;;;;;;;15.45;2.50;;;7.70;99.90;;;;;;5015054;28;20293;-72
2022/02/18 11:07:15;;;;;;;;;;;7.70;99.90;;;;;;5015676;28;20700;-72
2022/02/18 11:09:42;;;;;;;15.27;2.55;;;7.70;99.90;;;;;;5015135;28;19916;-73
2022/02/18 11:12:09;;;;;;;10.98;2.20;;;7.60;99.90;;;;;;5010735;28;20024;-74
2022/02/18 11:14:47;;;;;;;10.98;2.20;;;7.70;99.90;;;;;;5016529;28;20037;-73
2022/02/18 11:17:16;;;;;;;14.32;2.85;;;7.60;99.90;;;;;;5018139;28;20052;-73
2022/02/18 11:19:45;;;;;;;7.20;1.88;;;7.60;99.90;;;;;;5017789;28;20113;-73
2022/02/18 11:22:11;;;;;;;14.98;2.10;;;7.50;99.90;;;;;;5018214;28;20417;-74
2022/02/18 11:24:38;;;;;;;;;;;7.40;99.90;;;;;;5017349;28;20026;-74
2022/02/18 11:27:04;;;;;;;10.30;2.38;;;7.40;99.90;;;;;;5020665;28;20013;-74
2022/02/18 11:29:35;;;;;;;9.30;4.00;;;7.40;99.90;;;;;;5022188;28;20040;-74
2022/02/18 11:32:05;;;;;;;11.90;2.45;;;7.50;99.90;;;;;;5021627;28;20112;-74
2022/02/18 11:34:53;;;;;;;11.70;2.28;;;7.50;99.90;;;;;;5021392;28;20033;-74
2022/02/18 11:37:43;;;;;;;12.63;2.15;;;7.50;99.90;;;;;;5019942;28;20026;-74
2022/02/18 11:40:21;;;;;;;9.05;2.70;;;7.50;99.90;;;;;;5020942;28;20022;-74
2022/02/18 11:42:58;;;;;;;16.05;2.65;;;7.60;99.90;;;;;;5015910;28;20058;-72
2022/02/18 11:45:25;;;;;;;16.45;3.75;;;7.60;99.90;;;;;;5018700;28;20042;-75
2022/02/18 11:47:51;;;;;;;10.63;2.85;;;7.70;99.90;;;;;;5020384;28;20037;-75
2022/02/18 11:50:17;;;;;;;;;;;7.80;99.90;;;;;;5021790;28;20363;-76
2022/02/18 11:52:46;;;;;;;7.32;1.63;;;7.80;99.90;;;;;;5020885;28;20281;-75
2022/02/18 11:55:33;;;;;;;9.25;1.80;;;7.90;99.90;;;;;;5021325;28;20017;-75
2022/02/18 11:58:14;;;;;;;10.50;1.23;;;8.00;99.90;;;;;;5018712;28;20025;-73
2022/02/18 12:00:45;;;;;;;9.13;1.95;;;8.10;99.90;;;;;;5017114;28;20103;-71
2022/02/18 12:03:24;;;;;;;11.00;1.83;;;8.20;99.90;;;;;;5019755;28;20029;-72
2022/02/18 12:06:16;;;;;;;6.07;1.52;;;8.30;99.90;;;;;;5020578;28;20087;-71
2022/02/18 12:08:51;;;;;;;11.13;1.52;;;8.40;99.90;;;;;;5019216;28;20448;-70
2022/02/18 12:11:19;;;;;;;8.23;2.08;;;8.50;99.90;;;;;;5018182;28;20038;-72
2022/02/18 12:13:59;;;;;;;12.32;2.17;;;8.60;99.90;;;;;;5017307;28;20065;-72
2022/02/18 12:16:25;;;;;;;6.15;1.98;;;8.70;99.90;;;;;;5016595;28;20113;-76
2022/02/18 12:19:26;;;;;;;4.82;1.40;;;8.70;99.90;;;;;;5019351;28;20033;-74
2022/02/18 12:22:03;;;;;;;6.95;1.20;;;8.80;99.90;;;;;;4999827;28;20041;-73
2022/02/18 12:24:52;;;;;;;6.18;1.17;;;8.90;99.90;;;;;;5020527;28;20184;-73
2022/02/18 12:27:24;;;;;;;10.38;1.67;;;9.00;99.90;;;;;;5018148;28;20026;-73
2022/02/18 12:29:50;;;;;;;10.13;1.70;;;9.00;99.90;;;;;;5017121;28;20052;-71
2022/02/18 12:32:16;;;;;;;5.07;0.98;;;9.10;99.90;;;;;;5016421;28;20021;-70
2022/02/18 12:34:42;;;;;;;;;;;9.10;99.90;;;;;;5019745;28;20080;-67
2022/02/18 12:37:09;;;;;;;10.00;2.97;;;9.20;99.90;;;;;;5018656;28;20031;-67
2022/02/18 12:39:39;;;;;;;7.38;1.73;;;9.20;99.90;;;;;;5019133;28;20530;-72
2022/02/18 12:42:09;;;;;;;5.20;0.88;;;9.20;99.90;;;;;;5016198;28;20048;-69
2022/02/18 12:44:43;;;;;;;4.13;0.85;;;9.30;99.90;;;;;;5018103;28;20041;-71
2022/02/18 12:47:08;;;;;;;9.20;1.40;;;9.30;99.90;;;;;;5016602;28;20042;-71
2022/02/18 12:49:41;;;;;;;;;;;9.40;99.90;;;;;;5017594;28;20497;-71
2022/02/18 12:52:08;;;;;;;9.95;2.88;;;9.40;99.90;;;;;;5018573;28;20421;-71
2022/02/18 12:54:50;;;;;;;1.52;0.95;;;9.50;99.90;;;;;;5018349;28;20037;-71
2022/02/18 12:57:22;;;;;;;4.10;1.27;;;9.50;99.90;;;;;;5016471;28;20482;-71
2022/02/18 12:59:49;;;;;;;5.22;1.50;;;9.50;99.90;;;;;;5018164;28;20033;-71